Flight Track Log - Related Links

Times and Time Zones

All times are in EST time to prevent confusion due to time zone crossing. See the MTN8304 flight status page for this flight to view local times or setup timezone preferences in your user account.

Time Position Orientation Groundspeed Altitude Reporting Facility
EST Latitude Longitude Course Direction KTS MPH feet Rate Location/Type
Fri 06:39:02 AM 40.6833 -74.2167 270° West 99 114 1,500  Level New TRACON
Fri 06:40:02 AM 40.6667 -74.2500 237° Southwest 95 109 2,100 650 Climbing New TRACON
Fri 06:41:02 AM 40.6667 -74.2833 270° West 110 127 2,800 800 Climbing New TRACON
Fri 06:42:02 AM 40.6500 -74.3167 237° Southwest 86 99 3,700 619 Climbing New TRACON
Fri 06:43:08 AM 40.6500 -74.3500 270° West 109 125 4,100 200 Climbing New TRACON
Fri 06:44:00 AM 40.6333 -74.4247 270° West  Level FlightAware
Fri 06:44:02 AM 40.6333 -74.4000 246° West 151 174 4,100  Level New TRACON
Fri 06:45:02 AM 40.6333 -74.4500 270° West 145 167 4,900 800 Climbing New TRACON
Fri 06:46:02 AM 40.6333 -74.5000 270° West 105 121 5,700 400 Climbing New TRACON
Fri 06:48:02 AM 40.6167 -74.5833 255° West 128 147 6,100 133 Climbing New TRACON
Fri 06:49:02 AM 40.6000 -74.6333 246° West 135 155 6,100  Level New TRACON
Fri 06:50:02 AM 40.6000 -74.6667 270° West 135 155 6,100  Level New TRACON
Fri 06:51:02 AM 40.5833 -74.7167 246° West 133 153 6,100  Level New TRACON
Fri 06:52:02 AM 40.5833 -74.7667 270° West 157 181 6,100  Level New TRACON
Fri 06:53:08 AM 40.5833 -74.8333 270° West 152 175 6,100  Level New TRACON
Fri 06:54:02 AM 40.5667 -74.8833 246° West 152 175 6,100  Level New TRACON
Fri 06:55:02 AM 40.5667 -74.9333 270° West 153 176 6,100  Level New TRACON
Fri 06:56:02 AM 40.5667 -75.0000 270° West 168 193 6,100  Level New TRACON
Fri 06:57:02 AM 40.5500 -75.0667 252° West 168 193 6,100  Level New TRACON
Fri 06:58:02 AM 40.5500 -75.1167 270° West 160 184 6,100  Level New TRACON
Fri 06:59:02 AM 40.5500 -75.1667 270° West 167 192 6,100  Level New TRACON
Fri 07:00:02 AM 40.5333 -75.2333 252° West 160 184 6,100  Level New TRACON
Fri 07:00:56 AM 40.5167 -75.2833 246° West 157 181 6,100  Level New TRACON
Fri 07:02:02 AM 40.5167 -75.3500 270° West 159 183 6,100  Level New TRACON
Fri 07:03:02 AM 40.5000 -75.4000 246° West 154 177 6,100 -50 Level New TRACON
Fri 07:04:02 AM 40.5000 -75.4500 270° West 149 171 6,000  Descending New TRACON
Fri 07:04:56 AM 40.4833 -75.5000 246° West 147 169 6,100 53 Climbing New TRACON
Fri 07:05:56 AM 40.4833 -75.5167 270° West 147 169 6,100  Level New TRACON
Fri 07:07:56 AM 40.4833 -75.5167 37° Northeast 147 169 6,100  Level New TRACON
Fri 07:09:56 AM 40.4833 -75.5167 37° Northeast 147 169 6,100  Level New TRACON
Fri 07:11:57 AM 40.4833 -75.5167 37° Northeast 147 169 6,100  Level New TRACON
Fri 07:13:56 AM 40.4833 -75.5167 37° Northeast 147 169 6,100  Level New TRACON
Fri 07:15:56 AM 40.4833 -75.5167 37° Northeast 147 169 6,100  Level New TRACON
Fri 07:17:57 AM 40.4833 -75.5167 37° Northeast 147 169 6,100  Level New TRACON
Fri 07:19:51 AM 40.4833 -75.5167 37° Northeast 147 169 6,100  Level New TRACON
Fri 07:21:57 AM 40.4833 -75.5167 37° Northeast 147 169 6,100  Level New TRACON
Fri 07:23:57 AM 40.4833 -75.5167 37° Northeast 147 169 6,100  Level New TRACON
Fri 07:25:57 AM 40.4833 -75.5167 37° Northeast 147 169 6,100 -449 Level New TRACON
Fri 07:27:44 AM 39.8833 -76.3333 226° Southwest 174 200 4,400 -555 Descending Potomac TRACON
Fri 07:29:44 AM 39.8000 -76.3667 197° South 168 193 4,000 -133 Descending Potomac TRACON
Fri 07:30:44 AM 39.7500 -76.4000 207° Southwest 161 185 4,000  Level Potomac TRACON
Fri 07:32:44 AM 39.6667 -76.4333 197° South 155 178 4,000 498 Level Potomac TRACON
Fri 07:34:57 AM 40.4833 -75.5167 40° Northeast 147 169 6,100  Climbing New TRACON
Fri 07:35:38 AM 39.5500 -76.4833 219° Southwest 161 185 4,000 -1,426 Descending Potomac TRACON
Fri 07:36:38 AM 39.5000 -76.5000 194° South 172 198 3,700 -400 Descending Potomac TRACON
Fri 07:37:38 AM 39.4500 -76.5000 180° South 182 209 3,200 -368 Descending Potomac TRACON
Fri 07:38:32 AM 39.4167 -76.5167 201° Southwest 181 208 3,000 -105 Descending Potomac TRACON
Fri 07:39:32 AM 39.3667 -76.5333 194° South 169 194 3,000  Level Potomac TRACON
Fri 07:40:32 AM 39.3167 -76.5333 180° South 167 192 3,000 -200 Level Potomac TRACON
Fri 07:41:32 AM 39.2667 -76.5333 180° South 187 215 2,600 -474 Descending Potomac TRACON
Fri 07:42:26 AM 39.2333 -76.5167 159° South 185 213 2,100 -368 Descending Potomac TRACON
Fri 07:43:26 AM 39.1833 -76.5167 180° South 177 204 1,900 -50 Descending Potomac TRACON
Fri 07:44:26 AM 39.1333 -76.5333 194° South 148 170 2,000 53 Climbing Potomac TRACON
Fri 07:45:20 AM 39.1167 -76.5667 237° Southwest 140 161 2,000 -105 Level Potomac TRACON
Fri 07:46:20 AM 39.1333 -76.6000 303° West 127 146 1,800 -650 Descending Potomac TRACON
Fri 07:47:20 AM 39.1500 -76.6333 303° West 148 170 700 1,643 Descending Potomac TRACON
Fri 07:48:57 AM 40.4833 -75.5167 32° Northeast 147 169 6,100 1,493 Climbing New TRACON
Fri 07:50:57 AM 40.4833 -75.5167 37° Northeast 147 169 6,100  Level New TRACON
Fri 07:52:57 AM 40.4833 -75.5167 37° Northeast 147 169 6,100  Level New TRACON
Fri 07:54:57 AM 40.4833 -75.5167 37° Northeast 147 169 6,100  Level New TRACON
Fri 07:56:57 AM 40.4833 -75.5167 37° Northeast 147 169 6,100  Level New TRACON
Fri 07:58:57 AM 40.4833 -75.5167 37° Northeast 147 169 6,100  Level New TRACON
Fri 08:00:57 AM 40.4833 -75.5167 37° Northeast 147 169 6,100  Level New TRACON
Fri 08:02:51 AM 40.4833 -75.5167 37° Northeast 147 169 6,100  Level New TRACON
Fri 08:04:51 AM 40.4833 -75.5167 37° Northeast 147 169 6,100  Level New TRACON
Fri 08:06:57 AM 40.4833 -75.5167 37° Northeast 147 169 6,100  Level New TRACON
Fri 08:08:57 AM 40.4833 -75.5167 37° Northeast 147 169 6,100  Level New TRACON
Fri 08:10:57 AM 40.4833 -75.5167 37° Northeast 147 169 6,100  Level New TRACON
Fri 08:12:57 AM 40.4833 -75.5167 37° Northeast 147 169 6,100  Level New TRACON
Fri 08:14:45 AM 40.4833 -75.5167 37° Northeast 147 169 6,100  Level New TRACON
Fri 08:16:51 AM 40.4833 -75.5167 37° Northeast 147 169 6,100  Level New TRACON
Fri 08:18:51 AM 40.4833 -75.5167 37° Northeast 147 169 6,100  Level New TRACON
Fri 08:20:57 AM 40.4833 -75.5167 37° Northeast 147 169 6,100  Level New TRACON
Fri 08:22:57 AM 40.4833 -75.5167 37° Northeast 147 169 6,100  Level New TRACON
Fri 08:25:09 AM 40.4833 -75.5167 37° Northeast 147 169 6,100  Level New TRACON
Fri 08:27:03 AM 40.4833 -75.5167 37° Northeast 147 169 6,100  Level New TRACON
Fri 08:29:03 AM 40.4833 -75.5167 37° Northeast 147 169 6,100  Level New TRACON
Fri 08:30:57 AM 40.4833 -75.5167 37° Northeast 147 169 6,100  Level New TRACON
Fri 08:32:57 AM 40.4833 -75.5167 37° Northeast 147 169 6,100  Level New TRACON
Fri 08:34:57 AM 40.4833 -75.5167 37° Northeast 147 169 6,100  Level New TRACON
Fri 08:36:57 AM 40.4833 -75.5167 37° Northeast 147 169 6,100  Level New TRACON
Fri 08:38:57 AM 40.4833 -75.5167 37° Northeast 147 169 6,100  Level New TRACON
Fri 08:40:57 AM 40.4833 -75.5167 37° Northeast 147 169 6,100  Level New TRACON
Fri 08:42:51 AM 40.4833 -75.5167 37° Northeast 147 169 6,100  Level New TRACON
Fri 08:44:51 AM 40.4833 -75.5167 37° Northeast 147 169 6,100  Level New TRACON
Fri 08:46:51 AM 40.4833 -75.5167 37° Northeast 147 169 6,100  Level New TRACON
Fri 08:48:51 AM 40.4833 -75.5167 37° Northeast 147 169 6,100  Level New TRACON
Fri 08:50:45 AM 40.4833 -75.5167 37° Northeast 147 169 6,100  Level New TRACON
Fri 08:52:51 AM 40.4833 -75.5167 37° Northeast 147 169 6,100  Level New TRACON
Fri 08:54:51 AM 40.4833 -75.5167 37° Northeast 147 169 6,100  Level New TRACON
Fri 08:56:51 AM 40.4833 -75.5167 37° Northeast 147 169 6,100  Level New TRACON
Fri 08:58:57 AM 40.4833 -75.5167 37° Northeast 147 169 6,100  Level New TRACON
Fri 09:01:03 AM 40.4833 -75.5167 37° Northeast 147 169 6,100  Level New TRACON
Fri 09:02:51 AM 40.4833 -75.5167 37° Northeast 147 169 6,100  Level New TRACON
Fri 09:04:51 AM 40.4833 -75.5167 37° Northeast 147 169 6,100  Level New TRACON
Fri 09:06:51 AM 40.4833 -75.5167 37° Northeast 147 169 6,100  Level New TRACON
Fri 09:08:45 AM 40.4833 -75.5167 37° Northeast 147 169 6,100  Level New TRACON
Fri 09:10:45 AM 40.4833 -75.5167 37° Northeast 147 169 6,100  Level New TRACON
Fri 09:12:51 AM 40.4833 -75.5167 37° Northeast 147 169 6,100  Level New TRACON
Fri 09:14:45 AM 40.4833 -75.5167 37° Northeast 147 169 6,100  Level New TRACON
Fri 09:16:51 AM 40.4833 -75.5167 37° Northeast 147 169 6,100  Level New TRACON
Fri 09:18:45 AM 40.4833 -75.5167 37° Northeast 147 169 6,100  Level New TRACON
Fri 09:20:45 AM 40.4833 -75.5167 37° Northeast 147 169 6,100  Level New TRACON
Fri 09:22:51 AM 40.4833 -75.5167 37° Northeast 147 169 6,100  Level New TRACON
Fri 09:24:57 AM 40.4833 -75.5167 37° Northeast 147 169 6,100  Level New TRACON
Fri 09:26:57 AM 40.4833 -75.5167 37° Northeast 147 169 6,100  Level New TRACON
Fri 09:28:57 AM 40.4833 -75.5167 37° Northeast 147 169 6,100  Level New TRACON
Fri 09:29:57 AM 40.4833 -75.5167 270° West 147 169 6,100  Level New TRACON
Fri 09:30:00 AM 40.4502 -75.5465 270° West  Level Estimated
Fri 09:32:00 AM 40.4502 -75.5465 270° West  Level Estimated
Fri 09:32:03 AM 40.4833 -75.5167 270° West 147 169 6,100  Level New TRACON
Fri 09:34:03 AM 40.4833 -75.5167 37° Northeast 147 169 6,100  Level New TRACON
Fri 09:36:03 AM 40.4833 -75.5167 37° Northeast 147 169 6,100  Level New TRACON
Fri 09:38:00 AM 40.4470 -75.5494 270° West  Level Estimated
Fri 09:38:57 AM 40.4833 -75.5167 270° West 147 169 6,100  Level New TRACON
Fri 09:40:58 AM 40.4833 -75.5167 37° Northeast 147 169 6,100  Level New TRACON
Fri 09:43:03 AM 40.4833 -75.5167 37° Northeast 147 169 6,100  Level New TRACON
Fri 09:44:58 AM 40.4833 -75.5167 37° Northeast 147 169 6,100  Level New TRACON
Fri 09:46:57 AM 40.4833 -75.5167 37° Northeast 147 169 6,100  Level New TRACON
Fri 09:49:03 AM 40.4833 -75.5167 37° Northeast 147 169 6,100  Level New TRACON

Login

Don't have an account? Register now (free) for customized features, flight alerts, and more!